sensor_id;sensor_type;location;lat;lon;timestamp;pressure;altitude;pressure_sealevel;temperature;humidity
74613;BME280;63119;51.788;8.824;2022-11-15T00:01:29;99569.28;;;9.59;78.40
74613;BME280;63119;51.788;8.824;2022-11-15T00:03:54;99561.84;;;9.76;80.70
74613;BME280;63119;51.788;8.824;2022-11-15T00:06:19;99557.47;;;9.88;79.45
74613;BME280;63119;51.788;8.824;2022-11-15T00:08:44;99559.69;;;9.94;80.06
74613;BME280;63119;51.788;8.824;2022-11-15T00:11:11;99561.13;;;10.11;79.87
74613;BME280;63119;51.788;8.824;2022-11-15T00:13:37;99548.84;;;10.22;79.11
74613;BME280;63119;51.788;8.824;2022-11-15T00:16:03;99552.03;;;10.38;79.37
74613;BME280;63119;51.788;8.824;2022-11-15T00:18:29;99548.72;;;10.48;78.47
74613;BME280;63119;51.788;8.824;2022-11-15T00:20:56;99557.28;;;10.51;78.76
74613;BME280;63119;51.788;8.824;2022-11-15T00:23:21;99550.06;;;10.53;78.38
74613;BME280;63119;51.788;8.824;2022-11-15T00:25:47;99548.88;;;10.57;78.61
74613;BME280;63119;51.788;8.824;2022-11-15T00:28:12;99552.97;;;10.61;78.88
74613;BME280;63119;51.788;8.824;2022-11-15T00:30:37;99553.34;;;10.68;79.28
74613;BME280;63119;51.788;8.824;2022-11-15T00:33:06;99546.28;;;10.79;78.70
74613;BME280;63119;51.788;8.824;2022-11-15T00:35:33;99552.03;;;10.73;78.90
74613;BME280;63119;51.788;8.824;2022-11-15T00:37:59;99552.72;;;10.64;79.31
74613;BME280;63119;51.788;8.824;2022-11-15T00:40:24;99544.78;;;10.64;79.71
74613;BME280;63119;51.788;8.824;2022-11-15T00:42:49;99548.69;;;10.71;80.11
74613;BME280;63119;51.788;8.824;2022-11-15T00:45:15;99558.56;;;10.80;79.47
74613;BME280;63119;51.788;8.824;2022-11-15T00:47:40;99557.47;;;10.72;79.56
74613;BME280;63119;51.788;8.824;2022-11-15T00:50:05;99542.31;;;10.74;80.27
74613;BME280;63119;51.788;8.824;2022-11-15T00:52:31;99538.56;;;10.76;79.47
74613;BME280;63119;51.788;8.824;2022-11-15T00:54:56;99537.41;;;10.80;80.03
74613;BME280;63119;51.788;8.824;2022-11-15T00:57:21;99536.94;;;10.86;80.43
74613;BME280;63119;51.788;8.824;2022-11-15T00:59:46;99534.88;;;10.79;80.55
74613;BME280;63119;51.788;8.824;2022-11-15T01:02:12;99528.00;;;10.76;80.77
74613;BME280;63119;51.788;8.824;2022-11-15T01:04:37;99524.41;;;10.77;81.20
74613;BME280;63119;51.788;8.824;2022-11-15T01:07:02;99523.31;;;10.80;80.82
74613;BME280;63119;51.788;8.824;2022-11-15T01:09:28;99521.19;;;10.85;80.93
74613;BME280;63119;51.788;8.824;2022-11-15T01:11:53;99513.25;;;10.85;80.79
74613;BME280;63119;51.788;8.824;2022-11-15T01:14:19;99504.56;;;10.83;80.51
74613;BME280;63119;51.788;8.824;2022-11-15T01:16:44;99504.06;;;10.78;81.37
74613;BME280;63119;51.788;8.824;2022-11-15T01:19:09;99495.28;;;10.77;81.93
74613;BME280;63119;51.788;8.824;2022-11-15T01:21:34;99495.53;;;10.74;81.98
74613;BME280;63119;51.788;8.824;2022-11-15T01:24:00;99494.34;;;10.78;81.32
74613;BME280;63119;51.788;8.824;2022-11-15T01:26:25;99496.84;;;10.80;81.75
74613;BME280;63119;51.788;8.824;2022-11-15T01:28:51;99495.91;;;10.81;81.99
74613;BME280;63119;51.788;8.824;2022-11-15T01:31:19;99488.81;;;10.81;81.61
74613;BME280;63119;51.788;8.824;2022-11-15T01:33:44;99487.72;;;10.84;82.70
74613;BME280;63119;51.788;8.824;2022-11-15T01:36:19;99494.09;;;10.81;82.70
74613;BME280;63119;51.788;8.824;2022-11-15T01:38:46;99491.00;;;10.87;81.59
74613;BME280;63119;51.788;8.824;2022-11-15T01:41:15;99477.63;;;10.89;81.62
74613;BME280;63119;51.788;8.824;2022-11-15T01:43:41;99480.78;;;10.94;81.26
74613;BME280;63119;51.788;8.824;2022-11-15T01:46:23;99484.22;;;10.83;81.71
74613;BME280;63119;51.788;8.824;2022-11-15T01:48:51;99487.81;;;10.71;82.14
74613;BME280;63119;51.788;8.824;2022-11-15T01:51:19;99494.91;;;10.71;82.38
74613;BME280;63119;51.788;8.824;2022-11-15T01:53:47;99492.78;;;10.76;82.62
74613;BME280;63119;51.788;8.824;2022-11-15T01:56:17;99494.75;;;10.61;83.20
74613;BME280;63119;51.788;8.824;2022-11-15T01:58:45;99490.53;;;10.48;83.62
74613;BME280;63119;51.788;8.824;2022-11-15T02:01:12;99487.16;;;10.46;83.77
74613;BME280;63119;51.788;8.824;2022-11-15T02:03:46;99486.94;;;10.60;83.36
74613;BME280;63119;51.788;8.824;2022-11-15T02:06:14;99481.03;;;10.45;83.75
74613;BME280;63119;51.788;8.824;2022-11-15T02:08:40;99488.22;;;10.43;84.36
74613;BME280;63119;51.788;8.824;2022-11-15T02:11:08;99484.13;;;10.39;84.44
74613;BME280;63119;51.788;8.824;2022-11-15T02:13:35;99488.22;;;10.43;84.40
74613;BME280;63119;51.788;8.824;2022-11-15T02:18:35;99478.84;;;10.39;84.13
74613;BME280;63119;51.788;8.824;2022-11-15T02:21:24;99477.44;;;10.57;83.81
74613;BME280;63119;51.788;8.824;2022-11-15T02:32:20;99484.91;;;10.63;83.50
74613;BME280;63119;51.788;8.824;2022-11-15T02:38:29;99476.47;;;10.58;83.75
74613;BME280;63119;51.788;8.824;2022-11-15T02:40:52;99484.28;;;10.49;84.27
74613;BME280;63119;51.788;8.824;2022-11-15T02:43:28;99482.75;;;10.57;83.55
74613;BME280;63119;51.788;8.824;2022-11-15T02:46:18;99480.81;;;10.59;83.83
74613;BME280;63119;51.788;8.824;2022-11-15T02:48:47;99470.38;;;10.58;83.74
74613;BME280;63119;51.788;8.824;2022-11-15T02:51:13;99479.13;;;10.58;83.64
74613;BME280;63119;51.788;8.824;2022-11-15T02:53:39;99474.06;;;10.55;83.95
74613;BME280;63119;51.788;8.824;2022-11-15T02:56:05;99469.97;;;10.51;83.01
74613;BME280;63119;51.788;8.824;2022-11-15T02:58:41;99465.41;;;10.53;83.66
74613;BME280;63119;51.788;8.824;2022-11-15T03:04:02;99450.72;;;10.49;84.82
74613;BME280;63119;51.788;8.824;2022-11-15T03:06:55;99455.78;;;10.52;84.31
74613;BME280;63119;51.788;8.824;2022-11-15T03:12:40;99447.88;;;10.63;83.75
74613;BME280;63119;51.788;8.824;2022-11-15T03:15:12;99452.66;;;10.47;83.68
74613;BME280;63119;51.788;8.824;2022-11-15T03:18:15;99458.66;;;10.49;83.53
74613;BME280;63119;51.788;8.824;2022-11-15T03:20:44;99453.34;;;10.49;83.22
74613;BME280;63119;51.788;8.824;2022-11-15T03:23:11;99454.81;;;10.42;83.58
74613;BME280;63119;51.788;8.824;2022-11-15T03:25:41;99451.78;;;10.35;84.02
74613;BME280;63119;51.788;8.824;2022-11-15T03:28:10;99441.53;;;10.31;84.00
74613;BME280;63119;51.788;8.824;2022-11-15T03:30:38;99448.19;;;10.48;83.89
74613;BME280;63119;51.788;8.824;2022-11-15T03:33:05;99447.34;;;10.47;83.59
74613;BME280;63119;51.788;8.824;2022-11-15T03:35:36;99447.81;;;10.41;83.55
74613;BME280;63119;51.788;8.824;2022-11-15T03:38:11;99444.22;;;10.42;83.37
74613;BME280;63119;51.788;8.824;2022-11-15T03:40:41;99447.44;;;10.34;83.92
74613;BME280;63119;51.788;8.824;2022-11-15T03:43:24;99436.84;;;10.34;83.56
74613;BME280;63119;51.788;8.824;2022-11-15T03:46:12;99436.78;;;10.47;83.17
74613;BME280;63119;51.788;8.824;2022-11-15T03:48:43;99429.69;;;10.59;82.88
74613;BME280;63119;51.788;8.824;2022-11-15T03:51:12;99430.78;;;10.56;83.53
74613;BME280;63119;51.788;8.824;2022-11-15T03:53:37;99437.06;;;10.66;82.81
74613;BME280;63119;51.788;8.824;2022-11-15T03:56:03;99434.78;;;10.73;82.94
74613;BME280;63119;51.788;8.824;2022-11-15T03:58:28;99439.34;;;10.71;83.10
74613;BME280;63119;51.788;8.824;2022-11-15T04:00:53;99429.84;;;10.68;82.50
74613;BME280;63119;51.788;8.824;2022-11-15T04:03:19;99432.16;;;10.73;82.54
74613;BME280;63119;51.788;8.824;2022-11-15T04:05:44;99425.16;;;10.72;82.87
74613;BME280;63119;51.788;8.824;2022-11-15T04:08:09;99434.28;;;10.68;82.87
74613;BME280;63119;51.788;8.824;2022-11-15T04:10:34;99427.66;;;10.62;82.69
74613;BME280;63119;51.788;8.824;2022-11-15T04:13:02;99433.44;;;10.56;82.80
74613;BME280;63119;51.788;8.824;2022-11-15T04:15:27;99430.88;;;10.43;83.61
74613;BME280;63119;51.788;8.824;2022-11-15T04:17:55;99440.38;;;10.46;83.65
74613;BME280;63119;51.788;8.824;2022-11-15T04:20:27;99433.88;;;10.39;83.27
74613;BME280;63119;51.788;8.824;2022-11-15T04:25:58;99442.53;;;10.41;83.73
74613;BME280;63119;51.788;8.824;2022-11-15T04:28:24;99450.22;;;10.44;83.92
74613;BME280;63119;51.788;8.824;2022-11-15T04:30:49;99443.78;;;10.59;83.54
74613;BME280;63119;51.788;8.824;2022-11-15T04:33:15;99441.84;;;10.61;83.65
74613;BME280;63119;51.788;8.824;2022-11-15T04:35:41;99444.97;;;10.55;82.84
74613;BME280;63119;51.788;8.824;2022-11-15T04:38:08;99445.44;;;10.49;83.04
74613;BME280;63119;51.788;8.824;2022-11-15T04:40:35;99449.53;;;10.42;83.37
74613;BME280;63119;51.788;8.824;2022-11-15T04:43:00;99453.72;;;10.45;83.57
74613;BME280;63119;51.788;8.824;2022-11-15T04:45:25;99444.16;;;10.55;84.01
74613;BME280;63119;51.788;8.824;2022-11-15T04:47:51;99444.03;;;10.67;83.22
74613;BME280;63119;51.788;8.824;2022-11-15T04:50:16;99447.88;;;10.74;83.44
74613;BME280;63119;51.788;8.824;2022-11-15T04:52:49;99445.09;;;10.65;83.48
74613;BME280;63119;51.788;8.824;2022-11-15T04:55:14;99459.66;;;10.59;83.10
74613;BME280;63119;51.788;8.824;2022-11-15T04:57:40;99453.41;;;10.60;83.95
74613;BME280;63119;51.788;8.824;2022-11-15T05:00:09;99455.69;;;10.65;83.97
74613;BME280;63119;51.788;8.824;2022-11-15T05:02:35;99449.53;;;10.64;83.94
74613;BME280;63119;51.788;8.824;2022-11-15T05:05:19;99453.19;;;10.85;82.67
74613;BME280;63119;51.788;8.824;2022-11-15T05:07:44;99447.56;;;10.90;83.48
74613;BME280;63119;51.788;8.824;2022-11-15T05:10:09;99438.03;;;10.98;83.15
74613;BME280;63119;51.788;8.824;2022-11-15T05:12:35;99437.19;;;10.98;82.99
74613;BME280;63119;51.788;8.824;2022-11-15T05:15:01;99432.50;;;11.13;83.09
74613;BME280;63119;51.788;8.824;2022-11-15T05:17:26;99429.63;;;11.27;82.71
74613;BME280;63119;51.788;8.824;2022-11-15T05:19:51;99432.13;;;11.28;82.26
74613;BME280;63119;51.788;8.824;2022-11-15T05:22:17;99437.75;;;11.46;81.85
74613;BME280;63119;51.788;8.824;2022-11-15T05:24:43;99430.16;;;11.52;81.12
74613;BME280;63119;51.788;8.824;2022-11-15T05:27:08;99429.72;;;11.47;81.43
74613;BME280;63119;51.788;8.824;2022-11-15T05:29:33;99433.41;;;11.56;81.53
74613;BME280;63119;51.788;8.824;2022-11-15T05:31:59;99441.38;;;11.56;81.45
74613;BME280;63119;51.788;8.824;2022-11-15T05:34:24;99427.91;;;11.70;80.34
74613;BME280;63119;51.788;8.824;2022-11-15T05:36:50;99437.41;;;11.73;80.34
74613;BME280;63119;51.788;8.824;2022-11-15T05:39:16;99443.66;;;11.72;79.66
74613;BME280;63119;51.788;8.824;2022-11-15T05:41:48;99443.03;;;11.68;80.01
74613;BME280;63119;51.788;8.824;2022-11-15T05:44:17;99443.03;;;11.68;80.37
74613;BME280;63119;51.788;8.824;2022-11-15T05:46:44;99438.81;;;11.66;80.07
74613;BME280;63119;51.788;8.824;2022-11-15T05:49:12;99435.97;;;11.58;80.88
74613;BME280;63119;51.788;8.824;2022-11-15T05:51:41;99436.78;;;11.58;80.00
74613;BME280;63119;51.788;8.824;2022-11-15T05:54:07;99431.84;;;11.53;80.48
74613;BME280;63119;51.788;8.824;2022-11-15T05:56:32;99441.50;;;11.55;80.01
74613;BME280;63119;51.788;8.824;2022-11-15T05:58:58;99424.38;;;11.59;79.96
74613;BME280;63119;51.788;8.824;2022-11-15T06:01:25;99432.56;;;11.56;80.07
74613;BME280;63119;51.788;8.824;2022-11-15T06:03:51;99437.50;;;11.49;80.06
74613;BME280;63119;51.788;8.824;2022-11-15T06:06:16;99430.91;;;11.55;79.66
74613;BME280;63119;51.788;8.824;2022-11-15T06:08:41;99426.09;;;11.37;79.97
74613;BME280;63119;51.788;8.824;2022-11-15T06:11:07;99423.84;;;11.33;80.60
74613;BME280;63119;51.788;8.824;2022-11-15T06:13:33;99413.69;;;11.38;80.00
74613;BME280;63119;51.788;8.824;2022-11-15T06:15:59;99410.09;;;11.28;81.14
74613;BME280;63119;51.788;8.824;2022-11-15T06:18:24;99409.28;;;11.27;79.61
74613;BME280;63119;51.788;8.824;2022-11-15T06:20:50;99409.84;;;11.31;80.04
74613;BME280;63119;51.788;8.824;2022-11-15T06:23:15;99408.66;;;11.35;79.94
74613;BME280;63119;51.788;8.824;2022-11-15T06:25:41;99414.31;;;11.41;79.93
74613;BME280;63119;51.788;8.824;2022-11-15T06:28:06;99410.69;;;11.42;79.75
74613;BME280;63119;51.788;8.824;2022-11-15T06:30:31;99419.59;;;11.41;79.73
74613;BME280;63119;51.788;8.824;2022-11-15T06:33:04;99422.34;;;11.40;79.85
74613;BME280;63119;51.788;8.824;2022-11-15T06:35:30;99428.16;;;11.34;79.75
74613;BME280;63119;51.788;8.824;2022-11-15T06:37:56;99425.00;;;11.40;79.55
74613;BME280;63119;51.788;8.824;2022-11-15T06:40:26;99428.50;;;11.40;79.68
74613;BME280;63119;51.788;8.824;2022-11-15T06:42:57;99433.34;;;11.35;79.67
74613;BME280;63119;51.788;8.824;2022-11-15T06:45:22;99433.34;;;11.24;80.34
74613;BME280;63119;51.788;8.824;2022-11-15T06:47:48;99441.66;;;11.20;80.51
74613;BME280;63119;51.788;8.824;2022-11-15T06:50:13;99447.78;;;11.20;80.18
74613;BME280;63119;51.788;8.824;2022-11-15T06:52:39;99449.00;;;11.27;80.13
74613;BME280;63119;51.788;8.824;2022-11-15T06:55:04;99451.75;;;11.26;80.71
74613;BME280;63119;51.788;8.824;2022-11-15T06:57:30;99452.97;;;11.33;80.44
74613;BME280;63119;51.788;8.824;2022-11-15T06:59:55;99459.47;;;11.29;80.37
74613;BME280;63119;51.788;8.824;2022-11-15T07:02:20;99457.28;;;11.34;80.57
74613;BME280;63119;51.788;8.824;2022-11-15T07:04:46;99458.06;;;11.90;77.91
74613;BME280;63119;51.788;8.824;2022-11-15T07:07:11;99457.81;;;11.93;77.30
74613;BME280;63119;51.788;8.824;2022-11-15T07:09:36;99458.31;;;11.65;78.60
74613;BME280;63119;51.788;8.824;2022-11-15T07:12:01;99457.66;;;12.05;77.62
74613;BME280;63119;51.788;8.824;2022-11-15T07:14:27;99448.44;;;12.21;76.42
74613;BME280;63119;51.788;8.824;2022-11-15T07:16:52;99457.56;;;12.28;76.22
74613;BME280;63119;51.788;8.824;2022-11-15T07:19:17;99448.50;;;12.72;74.20
74613;BME280;63119;51.788;8.824;2022-11-15T07:21:42;99457.81;;;12.25;75.62
74613;BME280;63119;51.788;8.824;2022-11-15T07:24:08;99458.94;;;11.79;78.08
74613;BME280;63119;51.788;8.824;2022-11-15T07:26:33;99463.75;;;11.74;77.52
74613;BME280;63119;51.788;8.824;2022-11-15T07:28:58;99461.56;;;11.90;78.26
74613;BME280;63119;51.788;8.824;2022-11-15T07:31:24;99454.22;;;12.67;74.86
74613;BME280;63119;51.788;8.824;2022-11-15T07:33:50;99446.38;;;13.56;71.22
74613;BME280;63119;51.788;8.824;2022-11-15T07:36:15;99456.56;;;13.91;69.32
74613;BME280;63119;51.788;8.824;2022-11-15T07:38:41;99453.75;;;14.02;68.95
74613;BME280;63119;51.788;8.824;2022-11-15T07:41:06;99459.38;;;14.57;66.95
74613;BME280;63119;51.788;8.824;2022-11-15T07:43:32;99461.34;;;14.55;66.70
74613;BME280;63119;51.788;8.824;2022-11-15T07:46:05;99466.66;;;15.20;64.88
74613;BME280;63119;51.788;8.824;2022-11-15T07:48:30;99464.00;;;14.74;65.90
74613;BME280;63119;51.788;8.824;2022-11-15T07:50:56;99463.41;;;14.80;65.72
74613;BME280;63119;51.788;8.824;2022-11-15T07:53:21;99465.41;;;14.49;66.70
74613;BME280;63119;51.788;8.824;2022-11-15T07:55:46;99460.22;;;14.38;67.14
74613;BME280;63119;51.788;8.824;2022-11-15T07:58:12;99464.81;;;13.98;68.69
74613;BME280;63119;51.788;8.824;2022-11-15T08:00:37;99469.94;;;13.80;69.33
74613;BME280;63119;51.788;8.824;2022-11-15T08:03:12;99473.06;;;13.85;69.37
74613;BME280;63119;51.788;8.824;2022-11-15T08:05:38;99471.97;;;13.97;69.36
74613;BME280;63119;51.788;8.824;2022-11-15T08:08:04;99470.69;;;13.92;69.73
74613;BME280;63119;51.788;8.824;2022-11-15T08:10:30;99472.06;;;13.86;69.90
74613;BME280;63119;51.788;8.824;2022-11-15T08:15:25;99468.06;;;13.52;71.40
74613;BME280;63119;51.788;8.824;2022-11-15T08:17:57;99465.72;;;13.68;70.51
74613;BME280;63119;51.788;8.824;2022-11-15T08:20:24;99463.28;;;14.14;68.70
74613;BME280;63119;51.788;8.824;2022-11-15T08:22:50;99466.28;;;14.40;67.80
74613;BME280;63119;51.788;8.824;2022-11-15T08:25:15;99465.56;;;15.13;65.07
74613;BME280;63119;51.788;8.824;2022-11-15T08:27:41;99469.50;;;15.56;63.34
74613;BME280;63119;51.788;8.824;2022-11-15T08:30:06;99464.19;;;15.00;65.20
74613;BME280;63119;51.788;8.824;2022-11-15T08:32:32;99469.88;;;15.61;63.98
74613;BME280;63119;51.788;8.824;2022-11-15T08:34:57;99461.91;;;15.78;62.54
74613;BME280;63119;51.788;8.824;2022-11-15T08:37:22;99470.59;;;16.25;60.77
74613;BME280;63119;51.788;8.824;2022-11-15T08:39:48;99461.81;;;16.94;58.87
74613;BME280;63119;51.788;8.824;2022-11-15T08:42:13;99473.34;;;16.94;58.53
74613;BME280;63119;51.788;8.824;2022-11-15T08:44:39;99473.63;;;16.66;59.03
74613;BME280;63119;51.788;8.824;2022-11-15T08:47:05;99467.16;;;16.68;59.45
74613;BME280;63119;51.788;8.824;2022-11-15T08:49:30;99464.94;;;16.64;59.12
74613;BME280;63119;51.788;8.824;2022-11-15T08:51:55;99462.47;;;15.45;63.20
74613;BME280;63119;51.788;8.824;2022-11-15T08:54:21;99463.88;;;14.47;66.92
74613;BME280;63119;51.788;8.824;2022-11-15T08:56:46;99471.69;;;14.00;68.42
74613;BME280;63119;51.788;8.824;2022-11-15T08:59:11;99469.13;;;13.99;69.31
74613;BME280;63119;51.788;8.824;2022-11-15T09:01:36;99473.34;;;13.82;69.99
74613;BME280;63119;51.788;8.824;2022-11-15T09:04:02;99483.41;;;13.79;69.85
74613;BME280;63119;51.788;8.824;2022-11-15T09:06:29;99482.75;;;14.05;69.59
74613;BME280;63119;51.788;8.824;2022-11-15T09:08:54;99474.03;;;13.84;70.34
74613;BME280;63119;51.788;8.824;2022-11-15T09:11:19;99481.06;;;14.14;69.15
74613;BME280;63119;51.788;8.824;2022-11-15T09:13:46;99473.78;;;14.06;69.42
74613;BME280;63119;51.788;8.824;2022-11-15T09:16:11;99472.38;;;14.12;68.78
74613;BME280;63119;51.788;8.824;2022-11-15T09:18:37;99476.47;;;14.64;66.99
74613;BME280;63119;51.788;8.824;2022-11-15T09:21:03;99469.31;;;14.64;66.52
74613;BME280;63119;51.788;8.824;2022-11-15T09:23:28;99467.63;;;14.73;66.34
74613;BME280;63119;51.788;8.824;2022-11-15T09:25:58;99463.72;;;14.77;65.78
74613;BME280;63119;51.788;8.824;2022-11-15T09:28:24;99465.66;;;14.65;66.49
74613;BME280;63119;51.788;8.824;2022-11-15T09:30:49;99461.44;;;14.92;66.08
74613;BME280;63119;51.788;8.824;2022-11-15T09:33:14;99457.38;;;15.24;64.55
74613;BME280;63119;51.788;8.824;2022-11-15T09:35:40;99455.31;;;15.46;64.10
74613;BME280;63119;51.788;8.824;2022-11-15T09:38:06;99451.13;;;15.43;63.74
74613;BME280;63119;51.788;8.824;2022-11-15T09:40:32;99463.91;;;15.49;63.63
74613;BME280;63119;51.788;8.824;2022-11-15T09:43:16;99458.84;;;15.73;62.65
74613;BME280;63119;51.788;8.824;2022-11-15T09:46:04;99453.84;;;15.33;63.38
74613;BME280;63119;51.788;8.824;2022-11-15T09:48:54;99454.41;;;14.91;63.76
74613;BME280;63119;51.788;8.824;2022-11-15T09:51:24;99457.59;;;15.04;63.67
74613;BME280;63119;51.788;8.824;2022-11-15T09:54:16;99453.81;;;14.97;64.18
74613;BME280;63119;51.788;8.824;2022-11-15T09:56:43;99456.41;;;14.79;64.44
74613;BME280;63119;51.788;8.824;2022-11-15T10:04:36;99452.97;;;14.96;64.12
74613;BME280;63119;51.788;8.824;2022-11-15T10:07:15;99441.47;;;15.32;63.37
74613;BME280;63119;51.788;8.824;2022-11-15T10:09:53;99448.44;;;15.16;63.31
74613;BME280;63119;51.788;8.824;2022-11-15T10:12:21;99442.16;;;15.07;62.95
74613;BME280;63119;51.788;8.824;2022-11-15T10:14:49;99437.19;;;15.22;63.47
74613;BME280;63119;51.788;8.824;2022-11-15T10:17:33;99433.53;;;14.86;63.68
74613;BME280;63119;51.788;8.824;2022-11-15T10:20:47;99434.59;;;15.03;63.36
74613;BME280;63119;51.788;8.824;2022-11-15T10:23:14;99424.31;;;15.08;62.44
74613;BME280;63119;51.788;8.824;2022-11-15T10:25:40;99416.94;;;15.29;62.10
74613;BME280;63119;51.788;8.824;2022-11-15T10:28:20;99413.50;;;15.56;60.95
74613;BME280;63119;51.788;8.824;2022-11-15T10:30:49;99414.91;;;16.13;60.22
74613;BME280;63119;51.788;8.824;2022-11-15T10:36:18;99403.47;;;15.85;57.33
74613;BME280;63119;51.788;8.824;2022-11-15T10:41:36;99385.09;;;15.82;57.93
74613;BME280;63119;51.788;8.824;2022-11-15T10:46:45;99387.00;;;16.07;57.28
74613;BME280;63119;51.788;8.824;2022-11-15T10:49:18;99382.47;;;15.55;59.09
74613;BME280;63119;51.788;8.824;2022-11-15T10:51:53;99368.09;;;15.83;59.11
74613;BME280;63119;51.788;8.824;2022-11-15T10:54:44;99352.53;;;15.96;57.97
74613;BME280;63119;51.788;8.824;2022-11-15T10:57:20;99369.91;;;15.65;57.96
74613;BME280;63119;51.788;8.824;2022-11-15T10:59:48;99360.78;;;15.40;58.52
74613;BME280;63119;51.788;8.824;2022-11-15T11:02:38;99359.09;;;15.39;59.28
74613;BME280;63119;51.788;8.824;2022-11-15T11:05:24;99356.28;;;15.41;59.82
74613;BME280;63119;51.788;8.824;2022-11-15T11:07:57;99357.09;;;15.51;58.68
74613;BME280;63119;51.788;8.824;2022-11-15T11:10:23;99360.03;;;15.20;59.85
74613;BME280;63119;51.788;8.824;2022-11-15T11:12:48;99347.00;;;15.17;60.82
74613;BME280;63119;51.788;8.824;2022-11-15T11:15:15;99355.34;;;15.32;61.36
74613;BME280;63119;51.788;8.824;2022-11-15T11:18:07;99352.84;;;15.58;61.41
74613;BME280;63119;51.788;8.824;2022-11-15T11:20:37;99343.38;;;15.63;60.34
74613;BME280;63119;51.788;8.824;2022-11-15T11:31:49;99334.28;;;16.09;58.67
74613;BME280;63119;51.788;8.824;2022-11-15T11:37:17;99331.59;;;15.83;59.28
74613;BME280;63119;51.788;8.824;2022-11-15T11:45:14;99314.53;;;15.31;61.13
74613;BME280;63119;51.788;8.824;2022-11-15T11:48:13;99310.47;;;15.55;60.76
74613;BME280;63119;51.788;8.824;2022-11-15T11:50:40;99306.81;;;15.56;61.57
74613;BME280;63119;51.788;8.824;2022-11-15T11:56:14;99289.31;;;15.26;63.23
74613;BME280;63119;51.788;8.824;2022-11-15T11:58:44;99291.16;;;15.43;61.97
74613;BME280;63119;51.788;8.824;2022-11-15T12:01:16;99289.75;;;15.21;62.65
74613;BME280;63119;51.788;8.824;2022-11-15T12:08:53;99268.19;;;15.77;60.60
74613;BME280;63119;51.788;8.824;2022-11-15T12:11:23;99267.34;;;16.03;60.18
74613;BME280;63119;51.788;8.824;2022-11-15T12:13:53;99258.38;;;16.55;59.16
74613;BME280;63119;51.788;8.824;2022-11-15T12:16:27;99261.19;;;16.28;59.70
74613;BME280;63119;51.788;8.824;2022-11-15T12:18:55;99260.59;;;16.42;59.49
74613;BME280;63119;51.788;8.824;2022-11-15T12:21:36;99260.84;;;16.90;58.07
74613;BME280;63119;51.788;8.824;2022-11-15T12:24:29;99267.50;;;16.53;58.59
74613;BME280;63119;51.788;8.824;2022-11-15T12:27:01;99256.06;;;16.09;60.09
74613;BME280;63119;51.788;8.824;2022-11-15T12:29:39;99264.75;;;15.50;61.96
74613;BME280;63119;51.788;8.824;2022-11-15T12:32:33;99268.81;;;15.97;59.96
74613;BME280;63119;51.788;8.824;2022-11-15T12:35:01;99264.53;;;16.04;59.91
74613;BME280;63119;51.788;8.824;2022-11-15T12:45:34;99261.09;;;14.88;63.26
74613;BME280;63119;51.788;8.824;2022-11-15T12:50:55;99257.31;;;14.81;63.06
74613;BME280;63119;51.788;8.824;2022-11-15T12:53:32;99253.78;;;15.08;62.91
74613;BME280;63119;51.788;8.824;2022-11-15T13:07:02;99231.66;;;15.25;60.79
74613;BME280;63119;51.788;8.824;2022-11-15T13:12:01;99222.28;;;15.39;60.03
74613;BME280;63119;51.788;8.824;2022-11-15T13:19:46;99215.00;;;15.41;58.88
74613;BME280;63119;51.788;8.824;2022-11-15T13:22:11;99215.34;;;15.46;59.20
74613;BME280;63119;51.788;8.824;2022-11-15T13:24:57;99216.28;;;15.01;59.77
74613;BME280;63119;51.788;8.824;2022-11-15T13:27:22;99214.06;;;14.97;59.90
74613;BME280;63119;51.788;8.824;2022-11-15T13:29:48;99212.97;;;14.90;60.19
74613;BME280;63119;51.788;8.824;2022-11-15T13:32:15;99212.16;;;14.89;61.01
74613;BME280;63119;51.788;8.824;2022-11-15T13:34:49;99210.41;;;14.80;60.63
74613;BME280;63119;51.788;8.824;2022-11-15T13:39:48;99213.84;;;14.63;61.77
74613;BME280;63119;51.788;8.824;2022-11-15T13:42:18;99208.91;;;14.68;62.24
74613;BME280;63119;51.788;8.824;2022-11-15T13:44:55;99205.72;;;14.64;61.83
74613;BME280;63119;51.788;8.824;2022-11-15T13:47:21;99204.78;;;14.56;62.98
74613;BME280;63119;51.788;8.824;2022-11-15T13:49:51;99208.63;;;14.71;62.33
74613;BME280;63119;51.788;8.824;2022-11-15T13:52:17;99202.44;;;14.70;62.08
74613;BME280;63119;51.788;8.824;2022-11-15T13:57:13;99194.59;;;14.69;62.39
74613;BME280;63119;51.788;8.824;2022-11-15T13:59:53;99182.72;;;14.63;62.80
74613;BME280;63119;51.788;8.824;2022-11-15T14:02:21;99185.63;;;14.70;62.31
74613;BME280;63119;51.788;8.824;2022-11-15T14:05:17;99181.09;;;14.80;62.23
74613;BME280;63119;51.788;8.824;2022-11-15T14:10:30;99180.19;;;14.89;60.80
74613;BME280;63119;51.788;8.824;2022-11-15T14:12:57;99181.16;;;14.88;60.99
74613;BME280;63119;51.788;8.824;2022-11-15T14:15:34;99172.41;;;14.78;61.24
74613;BME280;63119;51.788;8.824;2022-11-15T14:17:59;99170.81;;;14.85;60.72
74613;BME280;63119;51.788;8.824;2022-11-15T14:20:26;99174.75;;;14.81;60.24
74613;BME280;63119;51.788;8.824;2022-11-15T14:22:54;99180.41;;;14.96;59.91
74613;BME280;63119;51.788;8.824;2022-11-15T14:25:33;99172.88;;;14.91;60.24
74613;BME280;63119;51.788;8.824;2022-11-15T14:30:47;99156.75;;;15.10;58.58
74613;BME280;63119;51.788;8.824;2022-11-15T14:35:47;99159.56;;;15.09;57.83
74613;BME280;63119;51.788;8.824;2022-11-15T14:38:13;99159.78;;;14.98;58.03
74613;BME280;63119;51.788;8.824;2022-11-15T14:40:39;99159.69;;;14.90;57.45
74613;BME280;63119;51.788;8.824;2022-11-15T14:43:07;99158.34;;;14.86;57.73
74613;BME280;63119;51.788;8.824;2022-11-15T14:45:33;99159.63;;;14.99;57.97
74613;BME280;63119;51.788;8.824;2022-11-15T14:47:58;99155.22;;;14.90;58.31
74613;BME280;63119;51.788;8.824;2022-11-15T14:50:24;99159.25;;;14.76;58.69
74613;BME280;63119;51.788;8.824;2022-11-15T14:52:49;99153.38;;;14.73;59.20
74613;BME280;63119;51.788;8.824;2022-11-15T14:57:42;99155.50;;;14.69;59.77
74613;BME280;63119;51.788;8.824;2022-11-15T15:00:08;99147.88;;;14.57;60.52